sensor_id;sensor_type;location;lat;lon;timestamp;P1;durP1;ratioP1;P2;durP2;ratioP2
16387;SDS011;8303;53.446;9.988;2023-05-15T04:49:03;51.90;;;48.20;;
16387;SDS011;8303;53.446;9.988;2023-05-15T04:51:31;51.93;;;47.87;;
16387;SDS011;8303;53.446;9.988;2023-05-15T04:53:58;46.60;;;43.20;;
16387;SDS011;8303;53.446;9.988;2023-05-15T04:56:25;50.80;;;46.87;;
16387;SDS011;8303;53.446;9.988;2023-05-15T04:58:52;45.93;;;42.63;;
16387;SDS011;8303;53.446;9.988;2023-05-15T05:01:22;46.00;;;42.53;;
16387;SDS011;8303;53.446;9.988;2023-05-15T05:03:49;48.73;;;45.00;;
16387;SDS011;8303;53.446;9.988;2023-05-15T05:06:18;50.37;;;46.70;;
16387;SDS011;8303;53.446;9.988;2023-05-15T05:08:45;55.03;;;51.03;;
16387;SDS011;8303;53.446;9.988;2023-05-15T05:11:12;50.30;;;46.47;;
16387;SDS011;8303;53.446;9.988;2023-05-15T05:13:39;53.50;;;49.73;;
16387;SDS011;8303;53.446;9.988;2023-05-15T05:16:06;53.20;;;49.47;;
16387;SDS011;8303;53.446;9.988;2023-05-15T05:18:34;53.40;;;49.30;;
16387;SDS011;8303;53.446;9.988;2023-05-15T05:21:01;55.77;;;52.00;;
16387;SDS011;8303;53.446;9.988;2023-05-15T05:23:30;56.23;;;52.10;;
16387;SDS011;8303;53.446;9.988;2023-05-15T05:25:58;57.30;;;52.87;;
16387;SDS011;8303;53.446;9.988;2023-05-15T05:28:25;53.80;;;49.67;;
16387;SDS011;8303;53.446;9.988;2023-05-15T05:30:52;52.27;;;48.57;;
16387;SDS011;8303;53.446;9.988;2023-05-15T05:33:20;61.27;;;56.93;;
16387;SDS011;8303;53.446;9.988;2023-05-15T05:35:47;54.80;;;50.33;;
16387;SDS011;8303;53.446;9.988;2023-05-15T05:38:14;58.03;;;53.23;;
16387;SDS011;8303;53.446;9.988;2023-05-15T05:40:43;49.43;;;45.13;;
16387;SDS011;8303;53.446;9.988;2023-05-15T05:43:10;56.67;;;52.10;;
16387;SDS011;8303;53.446;9.988;2023-05-15T05:45:37;50.50;;;46.67;;
16387;SDS011;8303;53.446;9.988;2023-05-15T05:48:05;45.20;;;42.00;;
16387;SDS011;8303;53.446;9.988;2023-05-15T05:50:32;48.23;;;44.43;;
16387;SDS011;8303;53.446;9.988;2023-05-15T05:53:02;51.40;;;47.10;;
16387;SDS011;8303;53.446;9.988;2023-05-15T05:55:30;52.53;;;48.40;;
16387;SDS011;8303;53.446;9.988;2023-05-15T05:57:58;53.90;;;49.47;;
16387;SDS011;8303;53.446;9.988;2023-05-15T06:00:26;51.90;;;47.47;;
16387;SDS011;8303;53.446;9.988;2023-05-15T06:02:55;49.27;;;45.37;;
16387;SDS011;8303;53.446;9.988;2023-05-15T06:05:23;52.03;;;48.03;;
16387;SDS011;8303;53.446;9.988;2023-05-15T06:07:50;51.80;;;47.60;;
16387;SDS011;8303;53.446;9.988;2023-05-15T06:10:18;51.30;;;47.37;;
16387;SDS011;8303;53.446;9.988;2023-05-15T06:12:45;51.07;;;47.63;;
16387;SDS011;8303;53.446;9.988;2023-05-15T06:15:14;51.67;;;47.40;;
16387;SDS011;8303;53.446;9.988;2023-05-15T06:17:42;51.80;;;47.70;;
16387;SDS011;8303;53.446;9.988;2023-05-15T06:20:09;49.33;;;45.27;;
16387;SDS011;8303;53.446;9.988;2023-05-15T06:22:37;49.57;;;45.97;;
16387;SDS011;8303;53.446;9.988;2023-05-15T06:25:05;55.97;;;50.80;;
16387;SDS011;8303;53.446;9.988;2023-05-15T06:27:37;57.50;;;53.23;;
16387;SDS011;8303;53.446;9.988;2023-05-15T06:30:06;52.53;;;48.53;;
16387;SDS011;8303;53.446;9.988;2023-05-15T06:32:35;55.60;;;51.50;;
16387;SDS011;8303;53.446;9.988;2023-05-15T06:35:03;53.30;;;49.33;;
16387;SDS011;8303;53.446;9.988;2023-05-15T06:37:30;60.23;;;55.77;;
16387;SDS011;8303;53.446;9.988;2023-05-15T06:39:57;64.83;;;60.10;;
16387;SDS011;8303;53.446;9.988;2023-05-15T06:42:25;63.57;;;59.17;;
16387;SDS011;8303;53.446;9.988;2023-05-15T06:44:52;67.73;;;63.37;;
16387;SDS011;8303;53.446;9.988;2023-05-15T06:47:19;69.73;;;64.70;;
16387;SDS011;8303;53.446;9.988;2023-05-15T06:49:52;78.10;;;73.30;;
16387;SDS011;8303;53.446;9.988;2023-05-15T06:52:19;80.53;;;75.27;;
16387;SDS011;8303;53.446;9.988;2023-05-15T06:54:46;75.07;;;69.80;;
16387;SDS011;8303;53.446;9.988;2023-05-15T06:57:14;75.33;;;70.47;;
16387;SDS011;8303;53.446;9.988;2023-05-15T06:59:41;55.03;;;51.50;;
16387;SDS011;8303;53.446;9.988;2023-05-15T07:02:08;55.87;;;51.97;;
16387;SDS011;8303;53.446;9.988;2023-05-15T07:04:35;56.10;;;52.10;;
16387;SDS011;8303;53.446;9.988;2023-05-15T07:07:06;55.80;;;51.83;;
16387;SDS011;8303;53.446;9.988;2023-05-15T07:09:33;54.03;;;50.30;;
16387;SDS011;8303;53.446;9.988;2023-05-15T07:12:00;52.77;;;48.77;;
16387;SDS011;8303;53.446;9.988;2023-05-15T07:14:28;45.93;;;42.27;;
16387;SDS011;8303;53.446;9.988;2023-05-15T07:16:55;48.30;;;44.50;;
16387;SDS011;8303;53.446;9.988;2023-05-15T07:19:22;40.53;;;37.57;;
16387;SDS011;8303;53.446;9.988;2023-05-15T07:21:49;29.77;;;27.33;;
16387;SDS011;8303;53.446;9.988;2023-05-15T07:24:18;24.75;;;22.40;;
16387;SDS011;8303;53.446;9.988;2023-05-15T07:26:45;21.33;;;19.48;;
16387;SDS011;8303;53.446;9.988;2023-05-15T07:29:13;24.15;;;21.98;;
16387;SDS011;8303;53.446;9.988;2023-05-15T07:31:40;26.65;;;23.52;;
16387;SDS011;8303;53.446;9.988;2023-05-15T07:34:08;23.85;;;21.70;;
16387;SDS011;8303;53.446;9.988;2023-05-15T07:36:36;25.25;;;22.75;;
16387;SDS011;8303;53.446;9.988;2023-05-15T07:39:03;24.85;;;22.30;;
16387;SDS011;8303;53.446;9.988;2023-05-15T07:41:32;22.87;;;20.77;;
16387;SDS011;8303;53.446;9.988;2023-05-15T07:43:59;28.58;;;26.38;;
16387;SDS011;8303;53.446;9.988;2023-05-15T07:46:26;22.02;;;19.67;;
16387;SDS011;8303;53.446;9.988;2023-05-15T07:48:54;33.95;;;30.75;;
16387;SDS011;8303;53.446;9.988;2023-05-15T07:51:21;24.42;;;22.27;;
16387;SDS011;8303;53.446;9.988;2023-05-15T07:53:48;28.92;;;26.38;;
16387;SDS011;8303;53.446;9.988;2023-05-15T07:56:15;33.17;;;30.67;;
16387;SDS011;8303;53.446;9.988;2023-05-15T07:58:44;45.75;;;42.90;;
16387;SDS011;8303;53.446;9.988;2023-05-15T08:01:11;42.58;;;39.58;;
16387;SDS011;8303;53.446;9.988;2023-05-15T08:03:39;49.92;;;46.88;;
16387;SDS011;8303;53.446;9.988;2023-05-15T08:06:06;49.95;;;46.38;;
16387;SDS011;8303;53.446;9.988;2023-05-15T08:08:33;44.20;;;41.30;;
16387;SDS011;8303;53.446;9.988;2023-05-15T08:11:01;36.05;;;33.33;;
16387;SDS011;8303;53.446;9.988;2023-05-15T08:13:28;38.92;;;36.42;;
16387;SDS011;8303;53.446;9.988;2023-05-15T08:15:56;26.73;;;24.90;;
16387;SDS011;8303;53.446;9.988;2023-05-15T08:18:24;23.45;;;21.95;;
16387;SDS011;8303;53.446;9.988;2023-05-15T08:20:51;19.85;;;18.45;;
16387;SDS011;8303;53.446;9.988;2023-05-15T08:23:18;14.55;;;13.05;;
16387;SDS011;8303;53.446;9.988;2023-05-15T08:25:46;14.60;;;13.38;;
16387;SDS011;8303;53.446;9.988;2023-05-15T08:28:13;15.10;;;13.90;;
16387;SDS011;8303;53.446;9.988;2023-05-15T08:30:41;17.10;;;15.85;;
16387;SDS011;8303;53.446;9.988;2023-05-15T08:33:09;20.95;;;19.05;;
16387;SDS011;8303;53.446;9.988;2023-05-15T08:35:36;18.40;;;17.10;;
16387;SDS011;8303;53.446;9.988;2023-05-15T08:38:04;18.67;;;17.40;;
16387;SDS011;8303;53.446;9.988;2023-05-15T08:40:31;18.02;;;16.80;;
16387;SDS011;8303;53.446;9.988;2023-05-15T08:43:02;18.55;;;17.25;;
16387;SDS011;8303;53.446;9.988;2023-05-15T08:45:35;16.63;;;15.32;;
16387;SDS011;8303;53.446;9.988;2023-05-15T08:48:02;17.70;;;16.00;;
16387;SDS011;8303;53.446;9.988;2023-05-15T08:50:36;17.45;;;15.90;;
16387;SDS011;8303;53.446;9.988;2023-05-15T08:53:04;17.17;;;15.65;;
16387;SDS011;8303;53.446;9.988;2023-05-15T08:55:32;16.92;;;15.35;;
16387;SDS011;8303;53.446;9.988;2023-05-15T08:57:59;16.77;;;15.60;;
16387;SDS011;8303;53.446;9.988;2023-05-15T09:00:27;16.25;;;15.15;;
16387;SDS011;8303;53.446;9.988;2023-05-15T09:02:57;19.55;;;18.35;;
16387;SDS011;8303;53.446;9.988;2023-05-15T09:05:25;16.48;;;15.38;;
16387;SDS011;8303;53.446;9.988;2023-05-15T09:07:55;17.25;;;16.13;;
16387;SDS011;8303;53.446;9.988;2023-05-15T09:10:24;17.55;;;16.35;;
16387;SDS011;8303;53.446;9.988;2023-05-15T09:12:51;16.05;;;15.00;;
16387;SDS011;8303;53.446;9.988;2023-05-15T09:15:20;14.63;;;13.30;;
16387;SDS011;8303;53.446;9.988;2023-05-15T09:17:50;14.55;;;13.35;;
16387;SDS011;8303;53.446;9.988;2023-05-15T09:20:25;14.77;;;13.50;;
16387;SDS011;8303;53.446;9.988;2023-05-15T09:22:55;16.45;;;15.13;;
16387;SDS011;8303;53.446;9.988;2023-05-15T09:25:34;15.10;;;13.52;;
16387;SDS011;8303;53.446;9.988;2023-05-15T09:28:03;15.55;;;14.23;;
16387;SDS011;8303;53.446;9.988;2023-05-15T09:30:31;14.65;;;13.27;;
16387;SDS011;8303;53.446;9.988;2023-05-15T09:32:59;13.57;;;12.55;;
16387;SDS011;8303;53.446;9.988;2023-05-15T09:35:32;13.52;;;12.60;;
16387;SDS011;8303;53.446;9.988;2023-05-15T09:38:03;14.63;;;13.57;;
16387;SDS011;8303;53.446;9.988;2023-05-15T09:40:34;14.10;;;12.98;;
16387;SDS011;8303;53.446;9.988;2023-05-15T09:43:01;13.75;;;12.85;;
16387;SDS011;8303;53.446;9.988;2023-05-15T09:45:29;16.30;;;14.98;;
16387;SDS011;8303;53.446;9.988;2023-05-15T09:47:58;16.58;;;15.20;;
16387;SDS011;8303;53.446;9.988;2023-05-15T09:50:31;15.88;;;14.77;;
16387;SDS011;8303;53.446;9.988;2023-05-15T09:53:00;15.40;;;13.73;;
16387;SDS011;8303;53.446;9.988;2023-05-15T09:55:30;15.25;;;13.75;;
16387;SDS011;8303;53.446;9.988;2023-05-15T09:58:05;21.40;;;19.83;;
16387;SDS011;8303;53.446;9.988;2023-05-15T10:00:33;17.67;;;16.33;;
16387;SDS011;8303;53.446;9.988;2023-05-15T10:03:01;14.93;;;13.75;;
16387;SDS011;8303;53.446;9.988;2023-05-15T10:05:30;19.92;;;18.38;;
16387;SDS011;8303;53.446;9.988;2023-05-15T10:07:59;19.00;;;17.85;;
16387;SDS011;8303;53.446;9.988;2023-05-15T10:10:28;18.58;;;17.30;;
16387;SDS011;8303;53.446;9.988;2023-05-15T10:12:58;17.80;;;16.65;;
16387;SDS011;8303;53.446;9.988;2023-05-15T10:15:29;19.52;;;18.27;;
16387;SDS011;8303;53.446;9.988;2023-05-15T10:17:56;14.00;;;12.90;;
16387;SDS011;8303;53.446;9.988;2023-05-15T10:20:25;15.02;;;13.88;;
16387;SDS011;8303;53.446;9.988;2023-05-15T10:22:53;16.88;;;15.27;;
16387;SDS011;8303;53.446;9.988;2023-05-15T10:25:26;14.77;;;13.85;;
16387;SDS011;8303;53.446;9.988;2023-05-15T10:28:00;22.88;;;21.30;;
16387;SDS011;8303;53.446;9.988;2023-05-15T10:30:27;18.60;;;17.30;;
16387;SDS011;8303;53.446;9.988;2023-05-15T10:32:56;19.13;;;17.92;;
16387;SDS011;8303;53.446;9.988;2023-05-15T10:35:26;22.05;;;20.27;;
16387;SDS011;8303;53.446;9.988;2023-05-15T10:37:54;19.50;;;18.10;;
16387;SDS011;8303;53.446;9.988;2023-05-15T10:40:22;17.15;;;12.68;;
16387;SDS011;8303;53.446;9.988;2023-05-15T10:42:50;20.92;;;14.80;;
16387;SDS011;8303;53.446;9.988;2023-05-15T10:45:21;16.75;;;15.43;;
16387;SDS011;8303;53.446;9.988;2023-05-15T10:47:48;18.85;;;16.17;;
16387;SDS011;8303;53.446;9.988;2023-05-15T10:50:17;17.60;;;16.40;;
16387;SDS011;8303;53.446;9.988;2023-05-15T10:52:45;17.38;;;16.30;;
16387;SDS011;8303;53.446;9.988;2023-05-15T10:55:16;19.42;;;15.52;;
16387;SDS011;8303;53.446;9.988;2023-05-15T10:57:44;23.13;;;21.50;;
16387;SDS011;8303;53.446;9.988;2023-05-15T11:00:24;20.92;;;19.63;;
16387;SDS011;8303;53.446;9.988;2023-05-15T11:02:52;19.85;;;18.65;;
16387;SDS011;8303;53.446;9.988;2023-05-15T11:05:22;22.65;;;20.95;;
16387;SDS011;8303;53.446;9.988;2023-05-15T11:10:51;24.10;;;22.40;;
16387;SDS011;8303;53.446;9.988;2023-05-15T11:13:19;18.67;;;17.35;;
16387;SDS011;8303;53.446;9.988;2023-05-15T11:15:48;18.45;;;16.85;;
16387;SDS011;8303;53.446;9.988;2023-05-15T11:18:15;14.95;;;13.85;;
16387;SDS011;8303;53.446;9.988;2023-05-15T11:23:36;19.33;;;18.13;;
16387;SDS011;8303;53.446;9.988;2023-05-15T11:26:05;20.92;;;19.58;;
16387;SDS011;8303;53.446;9.988;2023-05-15T11:28:39;14.82;;;13.93;;
16387;SDS011;8303;53.446;9.988;2023-05-15T11:31:10;14.90;;;14.00;;
16387;SDS011;8303;53.446;9.988;2023-05-15T11:33:38;17.15;;;15.57;;
16387;SDS011;8303;53.446;9.988;2023-05-15T11:36:06;19.02;;;17.75;;
16387;SDS011;8303;53.446;9.988;2023-05-15T11:38:37;23.20;;;21.40;;
16387;SDS011;8303;53.446;9.988;2023-05-15T11:41:15;20.33;;;19.02;;
16387;SDS011;8303;53.446;9.988;2023-05-15T11:43:46;18.80;;;17.60;;
16387;SDS011;8303;53.446;9.988;2023-05-15T11:46:15;21.10;;;19.70;;
16387;SDS011;8303;53.446;9.988;2023-05-15T11:48:43;21.25;;;19.85;;
16387;SDS011;8303;53.446;9.988;2023-05-15T11:51:15;21.95;;;19.60;;
16387;SDS011;8303;53.446;9.988;2023-05-15T11:53:48;22.33;;;20.65;;
16387;SDS011;8303;53.446;9.988;2023-05-15T11:56:16;20.42;;;18.98;;
16387;SDS011;8303;53.446;9.988;2023-05-15T11:58:46;19.30;;;17.90;;
16387;SDS011;8303;53.446;9.988;2023-05-15T12:01:16;21.88;;;20.13;;
16387;SDS011;8303;53.446;9.988;2023-05-15T12:03:45;19.95;;;18.63;;
16387;SDS011;8303;53.446;9.988;2023-05-15T12:06:13;23.90;;;22.38;;
16387;SDS011;8303;53.446;9.988;2023-05-15T12:08:40;17.60;;;16.50;;
16387;SDS011;8303;53.446;9.988;2023-05-15T12:11:08;17.63;;;16.63;;
16387;SDS011;8303;53.446;9.988;2023-05-15T12:13:36;15.48;;;14.45;;
16387;SDS011;8303;53.446;9.988;2023-05-15T12:16:03;15.98;;;14.77;;
16387;SDS011;8303;53.446;9.988;2023-05-15T12:18:32;14.00;;;12.88;;
16387;SDS011;8303;53.446;9.988;2023-05-15T12:21:00;16.65;;;14.13;;
16387;SDS011;8303;53.446;9.988;2023-05-15T12:23:29;17.80;;;16.40;;
16387;SDS011;8303;53.446;9.988;2023-05-15T12:25:58;18.98;;;17.42;;
16387;SDS011;8303;53.446;9.988;2023-05-15T12:28:26;18.35;;;16.85;;
16387;SDS011;8303;53.446;9.988;2023-05-15T12:30:55;24.27;;;22.45;;
16387;SDS011;8303;53.446;9.988;2023-05-15T12:33:23;27.35;;;25.20;;
16387;SDS011;8303;53.446;9.988;2023-05-15T12:35:53;29.00;;;26.80;;
16387;SDS011;8303;53.446;9.988;2023-05-15T12:38:22;29.00;;;26.80;;
16387;SDS011;8303;53.446;9.988;2023-05-15T12:40:50;26.63;;;24.73;;
16387;SDS011;8303;53.446;9.988;2023-05-15T12:43:18;26.10;;;24.05;;
16387;SDS011;8303;53.446;9.988;2023-05-15T12:45:50;26.55;;;24.15;;
16387;SDS011;8303;53.446;9.988;2023-05-15T12:48:18;22.20;;;20.08;;
16387;SDS011;8303;53.446;9.988;2023-05-15T12:50:47;26.58;;;24.55;;
16387;SDS011;8303;53.446;9.988;2023-05-15T12:53:17;22.13;;;20.33;;
16387;SDS011;8303;53.446;9.988;2023-05-15T12:55:47;22.58;;;21.15;;
16387;SDS011;8303;53.446;9.988;2023-05-15T12:58:16;23.95;;;21.85;;
16387;SDS011;8303;53.446;9.988;2023-05-15T13:00:43;30.88;;;28.65;;
16387;SDS011;8303;53.446;9.988;2023-05-15T13:03:12;29.58;;;27.38;;
16387;SDS011;8303;53.446;9.988;2023-05-15T13:05:41;22.95;;;21.25;;
16387;SDS011;8303;53.446;9.988;2023-05-15T13:08:12;22.75;;;21.17;;
16387;SDS011;8303;53.446;9.988;2023-05-15T13:10:42;27.52;;;25.63;;
16387;SDS011;8303;53.446;9.988;2023-05-15T13:13:10;29.05;;;26.88;;
16387;SDS011;8303;53.446;9.988;2023-05-15T13:15:39;30.63;;;28.15;;
16387;SDS011;8303;53.446;9.988;2023-05-15T13:18:09;26.92;;;25.00;;
16387;SDS011;8303;53.446;9.988;2023-05-15T13:20:38;24.20;;;22.25;;
16387;SDS011;8303;53.446;9.988;2023-05-15T13:23:06;15.27;;;14.15;;
16387;SDS011;8303;53.446;9.988;2023-05-15T13:25:34;22.23;;;20.13;;
16387;SDS011;8303;53.446;9.988;2023-05-15T13:28:04;29.92;;;27.75;;
16387;SDS011;8303;53.446;9.988;2023-05-15T13:30:32;49.20;;;45.90;;
16387;SDS011;8303;53.446;9.988;2023-05-15T13:33:00;85.82;;;80.68;;
16387;SDS011;8303;53.446;9.988;2023-05-15T13:35:28;130.43;;;122.60;;
16387;SDS011;8303;53.446;9.988;2023-05-15T13:37:55;122.35;;;115.13;;
16387;SDS011;8303;53.446;9.988;2023-05-15T13:40:23;81.85;;;76.82;;
16387;SDS011;8303;53.446;9.988;2023-05-15T13:42:51;86.55;;;81.25;;
16387;SDS011;8303;53.446;9.988;2023-05-15T13:45:20;112.20;;;105.57;;
16387;SDS011;8303;53.446;9.988;2023-05-15T13:47:47;33.03;;;30.80;;
16387;SDS011;8303;53.446;9.988;2023-05-15T13:50:15;26.05;;;23.83;;
16387;SDS011;8303;53.446;9.988;2023-05-15T13:52:44;18.23;;;16.52;;
16387;SDS011;8303;53.446;9.988;2023-05-15T13:55:11;18.48;;;16.45;;
16387;SDS011;8303;53.446;9.988;2023-05-15T13:57:39;20.27;;;18.27;;
16387;SDS011;8303;53.446;9.988;2023-05-15T14:00:09;20.15;;;18.00;;
16387;SDS011;8303;53.446;9.988;2023-05-15T14:02:39;18.80;;;16.75;;
16387;SDS011;8303;53.446;9.988;2023-05-15T14:05:07;23.77;;;21.00;;
16387;SDS011;8303;53.446;9.988;2023-05-15T14:07:35;60.20;;;56.17;;
16387;SDS011;8303;53.446;9.988;2023-05-15T14:10:02;21.85;;;19.80;;
16387;SDS011;8303;53.446;9.988;2023-05-15T14:12:30;69.22;;;64.75;;
16387;SDS011;8303;53.446;9.988;2023-05-15T14:14:58;65.10;;;60.92;;
16387;SDS011;8303;53.446;9.988;2023-05-15T14:17:26;39.22;;;35.90;;
16387;SDS011;8303;53.446;9.988;2023-05-15T14:19:54;25.50;;;21.85;;
16387;SDS011;8303;53.446;9.988;2023-05-15T14:22:22;19.85;;;17.80;;
16387;SDS011;8303;53.446;9.988;2023-05-15T14:24:49;21.95;;;19.77;;
16387;SDS011;8303;53.446;9.988;2023-05-15T14:27:16;20.60;;;18.67;;
16387;SDS011;8303;53.446;9.988;2023-05-15T14:29:44;24.35;;;22.38;;
16387;SDS011;8303;53.446;9.988;2023-05-15T14:32:12;19.08;;;17.13;;
16387;SDS011;8303;53.446;9.988;2023-05-15T14:34:40;19.13;;;16.65;;
16387;SDS011;8303;53.446;9.988;2023-05-15T14:37:08;29.75;;;27.00;;
16387;SDS011;8303;53.446;9.988;2023-05-15T14:39:36;52.33;;;48.67;;
16387;SDS011;8303;53.446;9.988;2023-05-15T14:42:03;41.80;;;38.55;;
16387;SDS011;8303;53.446;9.988;2023-05-15T14:44:31;52.03;;;48.53;;
16387;SDS011;8303;53.446;9.988;2023-05-15T14:47:05;83.75;;;78.57;;
16387;SDS011;8303;53.446;9.988;2023-05-15T14:49:33;95.47;;;89.32;;
16387;SDS011;8303;53.446;9.988;2023-05-15T14:52:01;98.15;;;92.43;;
16387;SDS011;8303;53.446;9.988;2023-05-15T14:54:30;120.03;;;113.07;;
16387;SDS011;8303;53.446;9.988;2023-05-15T14:56:57;63.97;;;59.17;;
16387;SDS011;8303;53.446;9.988;2023-05-15T14:59:24;38.30;;;34.90;;
16387;SDS011;8303;53.446;9.988;2023-05-15T15:01:52;19.67;;;17.73;;
16387;SDS011;8303;53.446;9.988;2023-05-15T15:04:19;21.33;;;19.60;;
16387;SDS011;8303;53.446;9.988;2023-05-15T15:06:47;28.55;;;26.10;;
16387;SDS011;8303;53.446;9.988;2023-05-15T15:09:14;31.98;;;26.67;;
16387;SDS011;8303;53.446;9.988;2023-05-15T15:11:43;28.42;;;25.85;;
16387;SDS011;8303;53.446;9.988;2023-05-15T15:14:10;22.83;;;21.17;;
16387;SDS011;8303;53.446;9.988;2023-05-15T15:16:37;32.90;;;30.10;;
16387;SDS011;8303;53.446;9.988;2023-05-15T15:19:04;23.27;;;21.05;;
16387;SDS011;8303;53.446;9.988;2023-05-15T15:21:32;26.80;;;24.55;;
16387;SDS011;8303;53.446;9.988;2023-05-15T15:24:00;21.02;;;19.33;;
16387;SDS011;8303;53.446;9.988;2023-05-15T15:26:27;33.78;;;31.23;;
16387;SDS011;8303;53.446;9.988;2023-05-15T15:28:56;44.17;;;40.97;;
16387;SDS011;8303;53.446;9.988;2023-05-15T15:31:25;19.98;;;18.15;;
16387;SDS011;8303;53.446;9.988;2023-05-15T15:33:53;21.23;;;19.23;;
16387;SDS011;8303;53.446;9.988;2023-05-15T15:36:21;53.78;;;50.03;;
16387;SDS011;8303;53.446;9.988;2023-05-15T15:38:48;71.63;;;67.03;;
16387;SDS011;8303;53.446;9.988;2023-05-15T15:41:15;99.07;;;93.22;;
16387;SDS011;8303;53.446;9.988;2023-05-15T15:43:45;47.03;;;43.65;;
16387;SDS011;8303;53.446;9.988;2023-05-15T15:46:13;50.92;;;47.47;;
16387;SDS011;8303;53.446;9.988;2023-05-15T15:48:41;31.48;;;28.90;;
16387;SDS011;8303;53.446;9.988;2023-05-15T15:51:08;52.40;;;49.05;;
16387;SDS011;8303;53.446;9.988;2023-05-15T15:53:36;73.82;;;69.40;;
16387;SDS011;8303;53.446;9.988;2023-05-15T15:56:04;104.57;;;98.30;;
16387;SDS011;8303;53.446;9.988;2023-05-15T15:58:32;86.68;;;81.63;;
16387;SDS011;8303;53.446;9.988;2023-05-15T16:00:59;97.72;;;91.68;;
16387;SDS011;8303;53.446;9.988;2023-05-15T16:03:28;44.85;;;41.17;;
16387;SDS011;8303;53.446;9.988;2023-05-15T16:05:56;138.02;;;128.18;;
16387;SDS011;8303;53.446;9.988;2023-05-15T16:08:23;36.25;;;33.75;;
16387;SDS011;8303;53.446;9.988;2023-05-15T16:10:52;44.95;;;41.78;;
16387;SDS011;8303;53.446;9.988;2023-05-15T16:13:19;105.90;;;99.88;;
16387;SDS011;8303;53.446;9.988;2023-05-15T16:15:47;84.90;;;79.50;;
16387;SDS011;8303;53.446;9.988;2023-05-15T16:18:14;67.80;;;63.58;;
16387;SDS011;8303;53.446;9.988;2023-05-15T16:20:43;37.75;;;35.15;;
16387;SDS011;8303;53.446;9.988;2023-05-15T16:23:11;73.55;;;69.18;;
16387;SDS011;8303;53.446;9.988;2023-05-15T16:25:40;90.65;;;85.55;;
16387;SDS011;8303;53.446;9.988;2023-05-15T16:28:07;102.15;;;95.93;;
16387;SDS011;8303;53.446;9.988;2023-05-15T16:30:34;79.95;;;75.20;;
16387;SDS011;8303;53.446;9.988;2023-05-15T16:33:01;51.33;;;48.20;;
16387;SDS011;8303;53.446;9.988;2023-05-15T16:35:29;67.72;;;63.60;;
16387;SDS011;8303;53.446;9.988;2023-05-15T16:37:57;84.25;;;79.57;;
16387;SDS011;8303;53.446;9.988;2023-05-15T16:40:25;78.15;;;73.43;;
16387;SDS011;8303;53.446;9.988;2023-05-15T16:42:52;52.25;;;48.78;;
16387;SDS011;8303;53.446;9.988;2023-05-15T16:45:19;89.07;;;83.43;;
16387;SDS011;8303;53.446;9.988;2023-05-15T16:47:46;103.10;;;97.40;;
16387;SDS011;8303;53.446;9.988;2023-05-15T16:50:13;102.63;;;96.72;;
16387;SDS011;8303;53.446;9.988;2023-05-15T16:52:41;101.13;;;95.65;;
16387;SDS011;8303;53.446;9.988;2023-05-15T16:55:12;108.28;;;102.18;;
16387;SDS011;8303;53.446;9.988;2023-05-15T16:57:40;77.25;;;72.82;;
16387;SDS011;8303;53.446;9.988;2023-05-15T17:00:08;91.95;;;86.80;;
16387;SDS011;8303;53.446;9.988;2023-05-15T17:02:35;67.28;;;63.13;;
16387;SDS011;8303;53.446;9.988;2023-05-15T17:05:02;124.60;;;117.20;;
16387;SDS011;8303;53.446;9.988;2023-05-15T17:07:30;85.20;;;79.03;;
16387;SDS011;8303;53.446;9.988;2023-05-15T17:09:58;62.28;;;58.08;;
16387;SDS011;8303;53.446;9.988;2023-05-15T17:15:00;58.38;;;54.42;;
16387;SDS011;8303;53.446;9.988;2023-05-15T17:17:27;71.53;;;67.05;;
16387;SDS011;8303;53.446;9.988;2023-05-15T17:19:54;77.97;;;73.57;;
16387;SDS011;8303;53.446;9.988;2023-05-15T17:22:21;112.30;;;106.30;;
16387;SDS011;8303;53.446;9.988;2023-05-15T17:24:49;149.30;;;141.32;;
16387;SDS011;8303;53.446;9.988;2023-05-15T17:27:17;128.85;;;121.97;;
16387;SDS011;8303;53.446;9.988;2023-05-15T17:29:44;92.93;;;87.75;;
16387;SDS011;8303;53.446;9.988;2023-05-15T17:32:12;65.35;;;61.33;;
16387;SDS011;8303;53.446;9.988;2023-05-15T17:34:40;60.40;;;56.83;;
16387;SDS011;8303;53.446;9.988;2023-05-15T17:37:07;40.67;;;37.90;;
16387;SDS011;8303;53.446;9.988;2023-05-15T17:39:36;59.80;;;56.25;;
16387;SDS011;8303;53.446;9.988;2023-05-15T17:42:03;41.30;;;38.05;;
16387;SDS011;8303;53.446;9.988;2023-05-15T17:44:30;46.38;;;43.55;;
16387;SDS011;8303;53.446;9.988;2023-05-15T17:46:57;68.03;;;63.95;;
16387;SDS011;8303;53.446;9.988;2023-05-15T17:49:26;89.22;;;84.45;;
16387;SDS011;8303;53.446;9.988;2023-05-15T17:51:53;93.25;;;87.88;;
16387;SDS011;8303;53.446;9.988;2023-05-15T17:54:20;112.85;;;106.60;;
16387;SDS011;8303;53.446;9.988;2023-05-15T17:56:47;145.57;;;137.38;;
16387;SDS011;8303;53.446;9.988;2023-05-15T17:59:14;140.33;;;132.30;;
16387;SDS011;8303;53.446;9.988;2023-05-15T18:01:41;87.57;;;82.20;;
16387;SDS011;8303;53.446;9.988;2023-05-15T18:04:08;110.80;;;104.53;;
16387;SDS011;8303;53.446;9.988;2023-05-15T18:06:36;141.40;;;133.90;;
16387;SDS011;8303;53.446;9.988;2023-05-15T18:09:03;182.37;;;172.47;;
16387;SDS011;8303;53.446;9.988;2023-05-15T18:11:30;367.33;;;343.20;;
16387;SDS011;8303;53.446;9.988;2023-05-15T18:13:57;246.33;;;233.10;;
16387;SDS011;8303;53.446;9.988;2023-05-15T18:16:24;317.37;;;297.63;;
16387;SDS011;8303;53.446;9.988;2023-05-15T18:18:51;215.83;;;204.27;;
16387;SDS011;8303;53.446;9.988;2023-05-15T18:21:18;178.23;;;167.63;;
16387;SDS011;8303;53.446;9.988;2023-05-15T18:23:47;98.20;;;92.50;;
16387;SDS011;8303;53.446;9.988;2023-05-15T18:26:14;69.47;;;65.10;;
16387;SDS011;8303;53.446;9.988;2023-05-15T18:28:40;93.60;;;87.87;;
16387;SDS011;8303;53.446;9.988;2023-05-15T18:31:07;57.37;;;53.77;;
16387;SDS011;8303;53.446;9.988;2023-05-15T18:33:35;62.30;;;58.40;;
16387;SDS011;8303;53.446;9.988;2023-05-15T18:36:02;78.93;;;73.80;;
16387;SDS011;8303;53.446;9.988;2023-05-15T18:38:29;63.57;;;59.43;;
16387;SDS011;8303;53.446;9.988;2023-05-15T18:40:58;55.87;;;51.97;;
16387;SDS011;8303;53.446;9.988;2023-05-15T18:43:25;57.30;;;53.77;;
16387;SDS011;8303;53.446;9.988;2023-05-15T18:45:52;57.23;;;53.43;;
16387;SDS011;8303;53.446;9.988;2023-05-15T18:48:19;65.10;;;60.93;;
16387;SDS011;8303;53.446;9.988;2023-05-15T18:50:46;52.00;;;48.23;;
16387;SDS011;8303;53.446;9.988;2023-05-15T18:53:13;63.70;;;59.57;;
16387;SDS011;8303;53.446;9.988;2023-05-15T18:55:40;91.53;;;85.47;;
16387;SDS011;8303;53.446;9.988;2023-05-15T18:58:08;44.80;;;41.80;;
16387;SDS011;8303;53.446;9.988;2023-05-15T19:00:35;67.83;;;62.63;;
16387;SDS011;8303;53.446;9.988;2023-05-15T19:03:02;72.60;;;67.97;;
16387;SDS011;8303;53.446;9.988;2023-05-15T19:05:30;81.63;;;76.17;;
16387;SDS011;8303;53.446;9.988;2023-05-15T19:07:57;50.63;;;47.07;;
16387;SDS011;8303;53.446;9.988;2023-05-15T19:10:24;103.93;;;97.20;;
16387;SDS011;8303;53.446;9.988;2023-05-15T19:12:53;46.77;;;43.57;;
16387;SDS011;8303;53.446;9.988;2023-05-15T19:15:21;46.43;;;43.27;;
16387;SDS011;8303;53.446;9.988;2023-05-15T19:17:48;57.23;;;53.43;;
16387;SDS011;8303;53.446;9.988;2023-05-15T19:20:15;74.20;;;69.60;;
16387;SDS011;8303;53.446;9.988;2023-05-15T19:22:42;99.30;;;91.90;;
16387;SDS011;8303;53.446;9.988;2023-05-15T19:25:10;59.53;;;55.63;;
16387;SDS011;8303;53.446;9.988;2023-05-15T19:27:37;64.00;;;59.80;;
16387;SDS011;8303;53.446;9.988;2023-05-15T19:30:06;62.83;;;58.60;;
16387;SDS011;8303;53.446;9.988;2023-05-15T19:32:36;61.93;;;57.90;;
16387;SDS011;8303;53.446;9.988;2023-05-15T19:35:04;56.40;;;52.67;;